Time;durP1;ratioP1;P1;durP2;ratioP2;P2;SDS_P1;SDS_P2;PMS_P1;PMS_P2;Temp;Humidity;BMP_temperature;BMP_pressure;BME280_temperature;BME280_humidity;BME280_pressure;Samples;Min_cycle;Max_cycle;Signal;HPM_P1;HPM_P2
2022/03/12 00:04:48;;;;;;;80.23;32.37;;;;;;;-1.64;59.53;102500.44;10257058;28;20230;-65
2022/03/12 00:09:52;;;;;;;82.63;32.47;;;;;;;-1.81;60.63;102505.97;10256625;28;20234;-61
2022/03/12 00:14:56;;;;;;;86.10;31.67;;;;;;;-1.93;61.17;102515.25;10256555;28;20231;-65
2022/03/12 00:20:00;;;;;;;93.23;32.80;;;;;;;-1.98;61.61;102505.50;10256412;28;20240;-65
2022/03/12 00:25:11;;;;;;;84.90;32.40;;;;;;;-1.96;61.82;102501.41;10256096;28;20232;-60
2022/03/12 00:30:17;;;;;;;79.13;30.50;;;;;;;-2.16;62.61;102494.88;10255477;28;20212;-65
2022/03/12 00:35:22;;;;;;;79.13;31.57;;;;;;;-2.12;63.14;102491.75;10255836;28;20274;-65
2022/03/12 00:40:25;;;;;;;76.53;31.53;;;;;;;-2.17;63.90;102487.13;10255325;28;20228;-65
2022/03/12 00:45:29;;;;;;;88.80;31.87;;;;;;;-2.20;64.33;102487.75;10255030;28;20220;-65
2022/03/12 00:50:34;;;;;;;80.93;32.30;;;;;;;-2.32;64.80;102489.41;10255170;28;20185;-62
2022/03/12 00:55:37;;;;;;;88.07;33.07;;;;;;;-2.13;65.57;102489.09;10254979;28;20204;-65
2022/03/12 01:00:41;;;;;;;91.37;33.03;;;;;;;-2.16;65.56;102491.44;10254738;28;20216;-62
2022/03/12 01:05:54;;;;;;;81.10;31.80;;;;;;;-2.36;67.03;102485.72;10254785;28;20220;-68
2022/03/12 01:11:00;;;;;;;90.63;34.03;;;;;;;-2.44;66.79;102489.38;10254808;28;20202;-66
2022/03/12 01:16:04;;;;;;;85.67;32.83;;;;;;;-2.34;67.56;102488.38;10257165;28;20555;-65
2022/03/12 01:21:11;;;;;;;85.00;31.53;;;;;;;-2.22;67.50;102480.78;10253999;28;20238;-64
2022/03/12 01:26:15;;;;;;;82.90;32.17;;;;;;;-2.16;68.09;102473.63;10254138;28;20230;-64
2022/03/12 01:31:19;;;;;;;73.83;33.87;;;;;;;-2.12;67.69;102480.72;10257137;28;20196;-62
2022/03/12 01:36:23;;;;;;;74.20;32.17;;;;;;;-2.09;68.00;102471.66;10256992;28;20278;-69
2022/03/12 01:41:29;;;;;;;97.63;33.37;;;;;;;-2.22;68.09;102475.69;10256695;28;20510;-63
2022/03/12 01:46:35;;;;;;;87.13;34.43;;;;;;;-2.24;69.67;102469.63;10256901;28;20303;-64
2022/03/12 01:51:42;;;;;;;77.03;31.97;;;;;;;-2.29;69.14;102466.72;10256607;28;20200;-65
2022/03/12 01:56:45;;;;;;;89.37;31.90;;;;;;;-2.41;68.84;102468.34;10256003;28;20222;-64
2022/03/12 02:01:52;;;;;;;81.97;30.70;;;;;;;-2.70;69.37;102473.78;10256213;28;20279;-64
2022/03/12 02:07:00;;;;;;;84.53;34.20;;;;;;;-2.84;70.42;102466.75;10256258;28;20216;-64
2022/03/12 02:12:03;;;;;;;88.83;32.73;;;;;;;-2.87;70.89;102468.19;10256043;28;20191;-64
2022/03/12 02:17:11;;;;;;;77.50;29.30;;;;;;;-3.08;70.35;102464.88;10255745;28;20236;-66
2022/03/12 02:22:16;;;;;;;81.93;31.40;;;;;;;-2.98;70.78;102454.66;10256242;28;20218;-65
2022/03/12 02:27:24;;;;;;;78.90;32.07;;;;;;;-3.07;71.82;102453.94;10255812;28;20220;-65
2022/03/12 02:32:28;;;;;;;79.30;30.77;;;;;;;-3.14;73.15;102459.31;10255769;28;20214;-65
2022/03/12 02:37:33;;;;;;;87.50;31.47;;;;;;;-3.05;73.32;102449.88;10255538;28;20536;-66
2022/03/12 02:42:39;;;;;;;81.23;28.97;;;;;;;-3.18;74.41;102452.25;10255520;28;20196;-62
2022/03/12 02:47:43;;;;;;;79.93;32.23;;;;;;;-3.18;74.00;102454.78;10255488;28;20567;-65
2022/03/12 02:52:47;;;;;;;77.70;28.90;;;;;;;-3.30;74.60;102445.31;10255274;28;20238;-65
2022/03/12 02:57:53;;;;;;;72.43;30.13;;;;;;;-3.39;74.86;102440.41;10255097;28;20200;-66
2022/03/12 03:02:56;;;;;;;82.20;30.13;;;;;;;-3.40;75.44;102441.19;10255246;28;20203;-66
2022/03/12 03:08:04;;;;;;;85.07;30.33;;;;;;;-3.36;76.32;102434.66;10255113;28;20224;-61
2022/03/12 03:13:36;;;;;;;75.10;29.87;;;;;;;-3.31;76.35;102441.88;10262356;28;20198;-64
2022/03/12 03:18:41;;;;;;;88.70;32.23;;;;;;;-3.29;77.34;102437.81;10262364;28;20242;-66
2022/03/12 03:23:45;;;;;;;81.37;31.80;;;;;;;-3.31;78.55;102438.47;10261929;28;20271;-63
2022/03/12 03:28:49;;;;;;;79.87;30.03;;;;;;;-3.50;79.72;102433.59;10261780;28;20216;-64
2022/03/12 03:33:52;;;;;;;75.73;30.13;;;;;;;-3.48;80.57;102426.09;10261593;28;20207;-68
2022/03/12 03:38:56;;;;;;;73.80;31.47;;;;;;;-3.41;80.70;102425.81;10261543;28;20200;-67
2022/03/12 03:44:02;;;;;;;79.17;30.23;;;;;;;-3.46;81.39;102428.00;10261128;28;20207;-67
2022/03/12 03:49:06;;;;;;;83.80;32.60;;;;;;;-3.30;81.40;102423.38;10261019;28;20224;-69
2022/03/12 03:54:11;;;;;;;91.23;33.80;;;;;;;-3.25;80.74;102422.06;10261009;28;20202;-68
2022/03/12 03:59:16;;;;;;;90.23;33.97;;;;;;;-3.52;80.28;102427.53;10261413;28;20211;-66
2022/03/12 04:04:19;;;;;;;93.87;35.93;;;;;;;-3.69;81.15;102430.34;10260272;28;20200;-62
2022/03/12 04:09:22;;;;;;;82.53;36.33;;;;;;;-3.76;81.57;102438.25;10260224;28;20234;-67
2022/03/12 04:14:27;;;;;;;92.10;35.93;;;;;;;-3.78;81.72;102444.88;10260080;28;20259;-67
2022/03/12 04:19:33;;;;;;;96.33;36.50;;;;;;;-3.71;81.51;102437.84;10259213;28;20242;-62
2022/03/12 04:24:36;;;;;;;87.13;35.00;;;;;;;-3.74;80.92;102437.63;10259163;29;20222;-66
2022/03/12 04:29:40;;;;;;;86.73;35.07;;;;;;;-3.78;81.16;102432.19;10259591;28;20306;-65
2022/03/12 04:34:44;;;;;;;85.50;34.27;;;;;;;-3.77;82.76;102432.31;10259248;28;20521;-63
2022/03/12 04:39:48;;;;;;;85.43;34.80;;;;;;;-3.68;81.80;102425.44;10259081;28;20287;-66
2022/03/12 04:44:53;;;;;;;85.30;33.03;;;;;;;-3.85;82.25;102433.31;10258710;28;20216;-68
2022/03/12 04:49:56;;;;;;;92.77;36.30;;;;;;;-3.84;83.29;102444.38;10258433;28;20202;-65
2022/03/12 04:55:00;;;;;;;90.80;34.37;;;;;;;-3.89;83.39;102427.91;10257999;28;20197;-63
2022/03/12 05:00:06;;;;;;;93.90;35.90;;;;;;;-3.91;84.11;102421.81;10258267;28;20224;-66
2022/03/12 05:05:12;;;;;;;95.63;34.77;;;;;;;-3.90;85.04;102410.94;10258051;28;20302;-69
2022/03/12 05:10:17;;;;;;;96.80;34.83;;;;;;;-3.96;86.81;102412.94;10257853;28;20561;-68
2022/03/12 05:15:21;;;;;;;78.17;33.13;;;;;;;-3.99;88.01;102411.06;10257635;28;20238;-66
2022/03/12 05:20:27;;;;;;;88.00;32.87;;;;;;;-4.04;88.45;102412.31;10257342;28;20263;-69
2022/03/12 05:25:31;;;;;;;82.97;33.37;;;;;;;-4.04;88.49;102411.47;10257371;28;20242;-65
2022/03/12 05:30:35;;;;;;;85.80;33.70;;;;;;;-4.09;87.96;102422.88;10257034;28;20244;-66
2022/03/12 05:35:42;;;;;;;93.00;34.53;;;;;;;-4.11;87.67;102424.41;10255510;28;20538;-64
2022/03/12 05:40:47;;;;;;;88.03;35.93;;;;;;;-4.07;88.94;102419.69;10253572;28;20230;-67
2022/03/12 05:45:52;;;;;;;95.20;34.67;;;;;;;-4.06;89.88;102424.03;10253786;28;20254;-71
2022/03/12 05:50:56;;;;;;;90.53;33.43;;;;;;;-3.86;88.67;102425.59;10253272;28;20224;-67
2022/03/12 05:55:59;;;;;;;97.83;35.77;;;;;;;-4.01;88.80;102430.34;9891586;28;9999846;-68
2022/03/12 06:01:04;;;;;;;109.70;38.07;;;;;;;-3.91;90.21;102425.25;10213491;29;20229;-64
2022/03/12 06:06:09;;;;;;;89.87;35.63;;;;;;;-3.89;92.31;102433.88;10215456;28;20232;-64
2022/03/12 06:11:12;;;;;;;92.33;34.57;;;;;;;-3.88;93.14;102415.34;10216662;29;20298;-63
2022/03/12 06:16:17;;;;;;;87.00;36.50;;;;;;;-3.88;93.13;102415.34;10220364;29;20220;-67
2022/03/12 06:21:21;;;;;;;88.53;37.20;;;;;;;-3.86;93.52;102401.13;10255566;28;20240;-70
2022/03/12 06:26:25;;;;;;;104.05;40.85;;;;;;;-3.86;94.09;102405.31;9913115;28;10000667;-63
2022/03/12 06:31:31;;;;;;;99.93;39.47;;;;;;;-3.74;94.24;102407.19;10252431;28;20258;-68
2022/03/12 06:36:35;;;;;;;87.13;37.70;;;;;;;-3.59;94.60;102397.38;10252382;28;20231;-66
2022/03/12 06:41:45;;;;;;;103.80;44.13;;;;;;;-3.46;91.92;102412.78;10252270;28;20220;-65
2022/03/12 06:46:50;;;;;;;95.70;40.47;;;;;;;-3.35;91.12;102417.06;10257947;28;20238;-65
2022/03/12 06:51:54;;;;;;;93.90;36.33;;;;;;;-3.08;89.72;102423.34;10260472;28;20232;-65
2022/03/12 06:56:57;;;;;;;80.30;33.30;;;;;;;-2.95;87.47;102434.56;10259462;28;20227;-65
2022/03/12 07:02:03;;;;;;;93.73;37.10;;;;;;;-2.76;86.00;102427.56;10259387;28;20307;-67
2022/03/12 07:07:07;;;;;;;91.47;36.23;;;;;;;-2.63;84.66;102431.94;10259325;28;20372;-65
2022/03/12 07:12:11;;;;;;;85.07;37.23;;;;;;;-2.51;81.14;102426.13;10259010;28;20216;-65
2022/03/12 07:17:16;;;;;;;91.03;37.57;;;;;;;-2.38;80.08;102423.72;10258609;28;20254;-64
2022/03/12 07:22:19;;;;;;;92.93;36.57;;;;;;;-2.21;79.84;102421.53;10258793;28;20220;-65
2022/03/12 07:27:24;;;;;;;85.37;34.93;;;;;;;-2.02;77.58;102429.75;10249915;28;20243;-67
2022/03/12 07:32:29;;;;;;;88.23;35.40;;;;;;;-1.78;77.55;102428.97;10218479;29;20220;-66
2022/03/12 07:37:33;;;;;;;77.20;30.27;;;;;;;-1.59;75.99;102427.84;10218431;29;20677;-66
2022/03/12 07:42:36;;;;;;;73.00;28.53;;;;;;;-1.34;75.86;102421.19;10229739;28;20212;-67
2022/03/12 07:47:41;;;;;;;75.07;30.13;;;;;;;-1.20;73.80;102423.03;10258120;28;20224;-67
2022/03/12 07:52:44;;;;;;;80.90;31.57;;;;;;;-1.08;73.67;102417.91;10257342;28;20307;-67
2022/03/12 07:57:47;;;;;;;71.50;30.27;;;;;;;-0.95;72.95;102414.53;10255898;28;20228;-66
2022/03/12 08:02:52;;;;;;;73.10;30.40;;;;;;;-0.74;73.25;102414.31;10257421;28;20668;-65
2022/03/12 08:07:56;;;;;;;72.77;26.93;;;;;;;-0.60;72.44;102408.50;10256686;28;20224;-68
2022/03/12 08:12:59;;;;;;;57.20;23.80;;;;;;;-0.40;68.74;102403.03;10256605;28;20228;-66
2022/03/12 08:18:04;;;;;;;59.03;28.73;;;;;;;-0.10;67.61;102396.50;10255085;28;20460;-65
2022/03/12 08:23:08;;;;;;;58.67;24.43;;;;;;;0.09;66.44;102390.97;10256554;28;20238;-66
2022/03/12 08:28:12;;;;;;;52.47;21.47;;;;;;;0.27;65.39;102397.22;10255751;29;20231;-64
2022/03/12 08:33:19;;;;;;;46.20;18.07;;;;;;;0.54;63.90;102398.94;10256317;28;20224;-63
2022/03/12 08:38:22;;;;;;;46.33;18.93;;;;;;;0.70;62.38;102405.13;10243621;29;20762;-64
2022/03/12 08:43:25;;;;;;;36.73;17.17;;;;;;;0.93;61.47;102401.44;10255654;28;20224;-65
2022/03/12 08:48:30;;;;;;;36.70;14.80;;;;;;;1.11;59.73;102400.84;10254961;28;20311;-63
2022/03/12 08:53:34;;;;;;;33.73;14.77;;;;;;;1.35;59.00;102398.00;10255014;28;20216;-64
2022/03/12 08:58:37;;;;;;;35.70;15.37;;;;;;;1.64;56.14;102388.66;10254357;28;20223;-65
2022/03/12 09:03:43;;;;;;;30.83;13.40;;;;;;;1.94;55.41;102377.63;10254567;28;20285;-61
2022/03/12 09:08:47;;;;;;;33.83;13.73;;;;;;;2.28;53.93;102382.97;10254081;28;20220;-60
2022/03/12 09:13:51;;;;;;;43.67;18.63;;;;;;;2.69;53.67;102374.97;10254190;29;20211;-65
2022/03/12 09:18:56;;;;;;;26.30;11.43;;;;;;;2.99;51.64;102358.63;10253900;28;20587;-64
2022/03/12 09:23:59;;;;;;;24.00;10.83;;;;;;;3.38;51.01;102360.72;10253864;28;20224;-68
2022/03/12 09:29:03;;;;;;;18.87;9.53;;;;;;;4.04;48.69;102353.75;10253848;28;20224;-65
2022/03/12 09:34:08;;;;;;;19.60;9.47;;;;;;;4.12;47.80;102356.69;10253813;28;20312;-64
2022/03/12 09:39:11;;;;;;;18.40;8.40;;;;;;;4.39;47.19;102343.44;10246226;28;20698;-65
2022/03/12 09:44:14;;;;;;;23.40;9.63;;;;;;;4.69;46.80;102344.84;10253795;28;20220;-63
2022/03/12 09:49:19;;;;;;;20.27;8.70;;;;;;;5.70;45.12;102314.91;10252949;28;20289;-63
2022/03/12 09:54:22;;;;;;;18.53;7.17;;;;;;;6.50;42.85;102300.09;10253413;28;20235;-62
2022/03/12 09:59:26;;;;;;;13.05;5.72;;;;;;;7.36;39.88;102286.00;10250913;28;20785;-64
2022/03/12 10:04:31;;;;;;;;;;;;;;;7.75;36.74;102276.97;10252968;28;20057;-64
2022/03/12 10:09:34;;;;;;;11.02;5.57;;;;;;;8.09;35.74;102263.38;10250085;28;20422;-64
2022/03/12 10:14:37;;;;;;;12.53;5.47;;;;;;;8.43;36.58;102279.09;10252748;28;20227;-65
2022/03/12 10:19:43;;;;;;;10.33;5.83;;;;;;;8.96;34.33;102252.13;10235435;28;20315;-63
2022/03/12 10:24:46;;;;;;;10.30;5.17;;;;;;;9.11;33.57;102250.81;10250547;28;20227;-66
2022/03/12 10:29:49;;;;;;;10.90;5.33;;;;;;;9.68;33.88;102240.16;10260452;28;20757;-66
2022/03/12 10:34:56;;;;;;;9.70;5.17;;;;;;;10.07;33.75;102236.75;10260488;28;20548;-65
2022/03/12 10:40:07;;;;;;;10.57;5.27;;;;;;;10.31;32.65;102232.13;10260378;28;20192;-64
2022/03/12 10:45:12;;;;;;;16.90;6.33;;;;;;;10.74;32.14;102227.78;10260031;28;20549;-65
2022/03/12 10:50:19;;;;;;;12.90;6.03;;;;;;;11.38;32.26;102223.75;10259793;28;20216;-64
2022/03/12 10:55:27;;;;;;;11.23;5.73;;;;;;;11.53;30.77;102216.19;10259772;28;20205;-67
2022/03/12 11:00:34;;;;;;;14.63;4.87;;;;;;;11.94;30.25;102229.00;10259373;28;20215;-66
2022/03/12 11:05:43;;;;;;;13.23;5.87;;;;;;;12.77;31.80;102223.09;10259383;28;20196;-66
2022/03/12 11:10:50;;;;;;;11.77;5.83;;;;;;;13.05;30.65;102203.41;10263191;28;20219;-64
2022/03/12 11:16:14;;;;;;;14.80;5.10;;;;;;;12.95;28.72;102196.34;10298827;28;20208;-64
2022/03/12 11:21:27;;;;;;;11.30;5.73;;;;;;;13.01;28.11;102201.63;10265074;28;20363;-61
2022/03/12 11:26:31;;;;;;;12.00;5.90;;;;;;;13.53;27.84;102199.50;10295552;28;20223;-67
2022/03/12 11:31:39;;;;;;;10.40;5.70;;;;;;;14.17;28.33;102192.06;10258120;28;20611;-65
2022/03/12 11:36:46;;;;;;;12.63;6.20;;;;;;;14.89;27.76;102179.25;10257987;28;20207;-63
2022/03/12 11:42:01;;;;;;;8.97;5.00;;;;;;;15.46;27.16;102175.81;10257838;28;20518;-66
2022/03/12 11:47:06;;;;;;;11.90;6.57;;;;;;;15.66;26.44;102161.81;10257859;28;20190;-64
2022/03/12 11:52:11;;;;;;;15.03;7.27;;;;;;;15.63;25.87;102151.38;10257285;28;20234;-65
2022/03/12 11:57:21;;;;;;;12.20;6.50;;;;;;;16.01;25.84;102146.84;10257442;28;20208;-64
2022/03/12 12:02:29;;;;;;;11.37;6.57;;;;;;;16.33;25.16;102130.13;10257371;28;20207;-68
2022/03/12 12:07:36;;;;;;;13.67;6.60;;;;;;;16.65;26.33;102128.22;10256822;28;20206;-68
2022/03/12 12:12:43;;;;;;;12.83;5.63;;;;;;;16.88;25.06;102115.81;10256464;28;20204;-62
2022/03/12 12:17:47;;;;;;;12.20;6.57;;;;;;;16.85;25.18;102105.34;10256327;28;20231;-64
2022/03/12 12:22:51;;;;;;;20.07;6.70;;;;;;;16.97;25.13;102115.75;10256206;28;20287;-60
2022/03/12 12:27:55;;;;;;;13.37;6.43;;;;;;;16.94;24.08;102110.53;10250359;28;20220;-59
2022/03/12 12:33:01;;;;;;;12.10;6.87;;;;;;;16.93;24.14;102103.53;10250995;28;20218;-61
2022/03/12 12:38:09;;;;;;;14.27;5.53;;;;;;;17.27;23.30;102099.75;10250025;28;20222;-60
2022/03/12 12:43:19;;;;;;;10.98;5.68;;;;;;;16.38;23.76;102107.38;10250335;28;20224;-60
2022/03/12 12:48:28;;;;;;;12.25;6.20;;;;;;;16.27;24.51;102090.88;10251214;28;20239;-64
2022/03/12 12:53:36;;;;;;;9.18;4.85;;;;;;;15.81;24.58;102087.56;10249346;29;20239;-66
2022/03/12 12:58:47;;;;;;;11.03;6.10;;;;;;;15.02;24.47;102071.16;10249201;29;20212;-62
2022/03/12 13:03:52;;;;;;;11.30;6.47;;;;;;;15.27;25.58;102066.78;10250694;28;20235;-65
2022/03/12 13:08:58;;;;;;;13.17;6.43;;;;;;;15.09;26.11;102051.97;10249254;29;20227;-66
2022/03/12 13:14:03;;;;;;;13.37;6.53;;;;;;;14.70;25.81;102046.78;10264908;28;20218;-65
2022/03/12 13:19:07;;;;;;;12.53;6.57;;;;;;;14.32;25.67;102045.88;10285009;28;20243;-64
2022/03/12 13:24:20;;;;;;;13.83;7.03;;;;;;;14.32;25.41;102038.94;10285640;28;20223;-68
2022/03/12 13:29:24;;;;;;;14.47;7.00;;;;;;;14.07;25.84;102041.44;10276805;28;20241;-64
2022/03/12 13:34:27;;;;;;;13.93;6.60;;;;;;;13.48;26.61;102036.84;10289666;28;20228;-64
2022/03/12 13:39:36;;;;;;;12.63;6.73;;;;;;;13.71;27.64;102036.97;10290327;28;20233;-65
2022/03/12 13:44:39;;;;;;;12.20;6.37;;;;;;;13.42;27.87;102028.13;10290348;28;20219;-67
2022/03/12 13:49:42;;;;;;;15.43;6.43;;;;;;;13.47;29.07;102029.91;10289880;28;20657;-65
2022/03/12 13:54:48;;;;;;;12.77;5.70;;;;;;;13.16;28.44;102033.22;10289615;28;20315;-67
2022/03/12 14:00:01;;;;;;;11.23;5.20;;;;;;;12.77;26.63;102019.84;10289827;28;20231;-67
2022/03/12 14:05:05;;;;;;;13.37;5.50;;;;;;;12.75;27.11;102013.78;10289720;28;20230;-68
2022/03/12 14:10:11;;;;;;;12.97;5.27;;;;;;;12.11;26.94;102019.28;10289506;28;20258;-64
2022/03/12 14:15:23;;;;;;;11.20;5.83;;;;;;;11.71;27.99;102017.09;10289581;28;20613;-66
2022/03/12 14:20:27;;;;;;;11.57;5.60;;;;;;;11.64;28.72;102003.13;10289289;28;20691;-63
2022/03/12 14:25:35;;;;;;;9.77;5.03;;;;;;;10.95;29.11;102004.75;10289268;28;20231;-63
2022/03/12 14:30:41;;;;;;;11.10;5.43;;;;;;;10.36;28.25;102006.41;10288888;28;20690;-65
2022/03/12 14:35:44;;;;;;;11.37;5.50;;;;;;;10.00;28.25;101996.22;10289188;28;20224;-62
2022/03/12 14:40:49;;;;;;;12.27;5.57;;;;;;;9.88;28.81;101997.72;10289079;28;20235;-65
2022/03/12 14:45:52;;;;;;;9.80;4.53;;;;;;;9.70;28.65;101999.97;10288824;28;20228;-66
2022/03/12 14:50:59;;;;;;;10.60;4.50;;;;;;;9.70;30.01;101989.59;10288681;28;20682;-64
2022/03/12 14:56:04;;;;;;;13.67;4.90;;;;;;;9.47;29.38;101985.66;10288627;28;20844;-67
2022/03/12 15:01:07;;;;;;;13.83;4.90;;;;;;;9.45;30.65;101982.16;10288610;28;20220;-62
2022/03/12 15:06:17;;;;;;;12.60;5.03;;;;;;;9.19;28.94;101972.13;10291706;28;20224;-66
2022/03/12 15:11:26;;;;;;;11.73;4.97;;;;;;;9.07;29.61;101968.41;10295824;28;20296;-66
2022/03/12 15:16:30;;;;;;;13.67;5.13;;;;;;;8.92;28.88;101963.75;10296042;28;20243;-66
2022/03/12 15:21:34;;;;;;;10.63;5.07;;;;;;;8.83;31.57;101962.69;10292536;28;20862;-64
2022/03/12 15:26:41;;;;;;;9.87;4.23;;;;;;;8.63;30.46;101961.38;10295212;28;20251;-66
2022/03/12 15:31:45;;;;;;;14.52;5.80;;;;;;;8.47;28.18;101967.00;10292555;28;20501;-65
2022/03/12 15:36:49;;;;;;;11.37;4.50;;;;;;;8.32;30.57;101961.47;10294806;28;20219;-65
2022/03/12 15:41:55;;;;;;;13.30;6.40;;;;;;;8.23;29.13;101958.59;10292170;28;20493;-63
2022/03/12 15:46:58;;;;;;;15.10;5.40;;;;;;;8.02;30.74;101961.53;10294525;28;20227;-63
2022/03/12 15:52:01;;;;;;;13.87;4.60;;;;;;;7.89;30.85;101960.31;10294009;28;20234;-67
2022/03/12 15:57:07;;;;;;;13.57;6.60;;;;;;;7.90;30.23;101956.03;10294119;28;20591;-69
2022/03/12 16:02:10;;;;;;;11.90;4.93;;;;;;;7.89;30.08;101947.41;10294076;28;20231;-63
2022/03/12 16:07:14;;;;;;;12.53;5.00;;;;;;;7.75;29.18;101940.09;10292891;28;20223;-63
2022/03/12 16:12:18;;;;;;;13.13;5.22;;;;;;;7.56;30.74;101946.50;10288699;28;20435;-66
2022/03/12 16:17:22;;;;;;;10.13;4.47;;;;;;;7.32;32.97;101942.34;9920432;28;9999720;-64
2022/03/12 16:22:26;;;;;;;;;;;;;;;7.16;35.26;101940.19;10252103;28;20061;-67
2022/03/12 16:27:30;;;;;;;19.27;8.02;;;;;;;7.07;34.72;101942.47;10247583;28;20484;-64
2022/03/12 16:32:33;;;;;;;19.80;6.88;;;;;;;6.83;37.33;101942.63;10248608;28;20871;-64
2022/03/12 16:37:37;;;;;;;12.23;4.60;;;;;;;6.65;36.00;101947.22;10250354;28;20206;-67
2022/03/12 16:42:42;;;;;;;17.45;6.65;;;;;;;6.57;38.13;101949.59;10247658;28;20411;-66
2022/03/12 16:47:52;;;;;;;18.57;6.87;;;;;;;6.41;38.43;101949.03;10287010;28;20536;-64
2022/03/12 16:52:56;;;;;;;17.42;6.75;;;;;;;6.25;38.50;101937.34;10264119;28;20516;-67
2022/03/12 16:58:03;;;;;;;16.75;6.72;;;;;;;6.10;38.49;101941.13;10247306;28;20428;-64
2022/03/12 17:03:07;;;;;;;16.77;6.10;;;;;;;6.03;40.45;101940.03;10247816;28;20460;-66
2022/03/12 17:08:11;;;;;;;16.73;6.38;;;;;;;5.95;41.84;101949.22;10247443;28;20446;-66
2022/03/12 17:13:16;;;;;;;18.52;7.38;;;;;;;5.88;41.30;101944.69;10246875;28;20420;-64
2022/03/12 17:18:21;;;;;;;19.50;6.30;;;;;;;5.77;42.27;101945.97;10211599;28;20428;-63
2022/03/12 17:23:28;;;;;;;20.27;6.50;;;;;;;5.70;44.16;101942.31;10206764;29;20437;-65
2022/03/12 17:28:35;;;;;;;19.93;7.67;;;;;;;5.57;45.27;101928.97;10206434;29;20916;-65
2022/03/12 17:33:40;;;;;;;21.65;7.80;;;;;;;5.45;45.26;101936.25;10206062;29;20433;-64
2022/03/12 17:38:43;;;;;;;19.27;7.22;;;;;;;5.38;44.73;101937.75;10206295;29;20414;-64
2022/03/12 17:43:49;;;;;;;23.77;9.27;;;;;;;5.31;44.98;101940.03;10206183;29;20401;-68
2022/03/12 17:48:52;;;;;;;40.53;18.35;;;;;;;5.19;42.08;101949.88;10205934;29;20405;-66
2022/03/12 17:53:57;;;;;;;38.25;18.38;;;;;;;5.26;41.68;101950.16;10205492;29;20747;-66
2022/03/12 17:59:01;;;;;;;39.70;18.48;;;;;;;5.34;41.22;101946.16;10206027;29;20414;-65
2022/03/12 18:04:05;;;;;;;34.97;17.10;;;;;;;5.24;40.77;101933.78;10239873;29;20995;-65
2022/03/12 18:09:10;;;;;;;36.13;17.30;;;;;;;5.25;42.18;101934.66;10245159;28;20511;-66
2022/03/12 18:14:16;;;;;;;34.83;17.50;;;;;;;5.16;42.12;101936.91;10245176;28;20419;-65
2022/03/12 18:19:20;;;;;;;40.60;21.00;;;;;;;5.12;43.88;101929.88;10244317;28;20789;-64
2022/03/12 18:24:25;;;;;;;36.95;19.63;;;;;;;4.98;42.28;101931.06;10243483;28;20760;-67
2022/03/12 18:29:29;;;;;;;39.67;19.17;;;;;;;4.95;42.78;101926.69;10243547;28;20411;-68
2022/03/12 18:34:33;;;;;;;40.45;19.88;;;;;;;4.83;41.56;101926.25;10248005;28;20495;-66
2022/03/12 18:39:39;;;;;;;35.40;19.27;;;;;;;4.76;43.20;101928.50;10249200;28;20869;-66
2022/03/12 18:44:43;;;;;;;34.13;17.87;;;;;;;4.69;42.92;101946.25;10257504;28;20215;-67
2022/03/12 18:49:49;;;;;;;41.57;17.60;;;;;;;4.72;43.66;101943.81;10257279;28;20220;-62
2022/03/12 18:54:53;;;;;;;39.97;17.00;;;;;;;4.51;46.50;101940.41;10257473;28;20380;-61
2022/03/12 18:59:58;;;;;;;43.53;17.43;;;;;;;4.53;46.23;101940.47;10257043;28;20228;-62
2022/03/12 19:05:02;;;;;;;33.40;16.13;;;;;;;4.57;48.16;101944.91;10256642;28;20234;-66
2022/03/12 19:10:07;;;;;;;37.80;15.87;;;;;;;4.56;47.19;101940.56;10256547;28;20232;-65
2022/03/12 19:15:14;;;;;;;39.40;16.37;;;;;;;4.48;48.26;101941.97;10236843;28;20299;-69
2022/03/12 19:20:18;;;;;;;39.07;16.53;;;;;;;4.34;48.85;101950.81;10206258;28;1077822;-63
2022/03/12 19:25:23;;;;;;;37.87;17.23;;;;;;;4.17;49.14;101947.59;10258585;28;20226;-63
2022/03/12 19:30:28;;;;;;;38.17;15.73;;;;;;;4.05;49.49;101941.94;10253436;28;20224;-65
2022/03/12 19:35:35;;;;;;;38.87;15.70;;;;;;;3.89;50.16;101936.97;10222231;28;20217;-66
2022/03/12 19:40:39;;;;;;;205.60;88.53;;;;;;;3.71;49.94;101928.47;10218451;29;20316;-69
2022/03/12 19:45:43;;;;;;;45.83;19.03;;;;;;;3.57;51.16;101937.31;10225718;29;20572;-64
2022/03/12 19:50:48;;;;;;;46.13;18.23;;;;;;;3.43;51.65;101933.25;10245107;28;20246;-66
2022/03/12 19:55:52;;;;;;;40.53;18.30;;;;;;;3.38;51.37;101934.75;10251549;28;20213;-66
2022/03/12 20:00:56;;;;;;;39.37;17.10;;;;;;;3.30;51.67;101936.09;10218109;29;20217;-68
2022/03/12 20:06:00;;;;;;;49.23;18.33;;;;;;;3.25;52.55;101932.44;10233898;28;20252;-69
2022/03/12 20:11:03;;;;;;;38.30;16.60;;;;;;;3.23;53.37;101940.06;10259633;28;20327;-66
2022/03/12 20:16:09;;;;;;;39.50;17.60;;;;;;;3.07;53.64;101940.19;10259801;28;20664;-67
2022/03/12 20:21:13;;;;;;;52.00;20.00;;;;;;;2.83;54.08;101938.22;10257995;28;20266;-68
2022/03/12 20:26:17;;;;;;;54.27;20.63;;;;;;;2.87;54.71;101951.22;10259369;28;20314;-68
2022/03/12 20:31:23;;;;;;;48.87;19.97;;;;;;;2.65;53.44;101945.94;10258896;28;20311;-65
2022/03/12 20:36:27;;;;;;;43.00;18.57;;;;;;;2.43;54.63;101947.41;10258938;28;20609;-69
2022/03/12 20:41:31;;;;;;;48.50;18.73;;;;;;;2.48;56.25;101946.81;10258876;28;20251;-64
2022/03/12 20:46:35;;;;;;;49.27;19.47;;;;;;;2.50;57.40;101946.88;10258390;28;20231;-64
2022/03/12 20:51:39;;;;;;;47.90;19.43;;;;;;;2.43;57.20;101939.72;10258349;28;20311;-63
2022/03/12 20:56:42;;;;;;;52.37;19.37;;;;;;;2.36;57.88;101934.28;10258058;28;20287;-67
2022/03/12 21:01:47;;;;;;;49.77;19.13;;;;;;;2.32;57.97;101931.50;10257719;28;20240;-67
2022/03/12 21:06:53;;;;;;;53.17;19.97;;;;;;;2.20;57.72;101926.69;10258021;28;20208;-67
2022/03/12 21:12:05;;;;;;;54.33;20.17;;;;;;;2.24;58.08;101930.28;10257729;28;20555;-67
2022/03/12 21:17:11;;;;;;;42.87;18.77;;;;;;;2.23;58.78;101924.25;10256927;28;20266;-66
2022/03/12 21:22:14;;;;;;;44.50;21.27;;;;;;;2.12;58.05;101920.28;10257467;28;20287;-67
2022/03/12 21:27:18;;;;;;;48.33;19.13;;;;;;;2.00;59.34;101932.50;10257220;28;20200;-67
2022/03/12 21:32:28;;;;;;;47.93;19.93;;;;;;;1.89;60.31;101926.00;10257286;28;20310;-65
2022/03/12 21:37:31;;;;;;;42.17;19.80;;;;;;;1.74;60.35;101927.78;10256963;28;20278;-66
2022/03/12 21:42:37;;;;;;;48.13;20.60;;;;;;;1.69;61.42;101928.34;10256689;28;20204;-68
2022/03/12 21:47:42;;;;;;;43.70;19.10;;;;;;;1.65;61.34;101916.19;10256845;28;20196;-68
2022/03/12 21:52:48;;;;;;;51.37;20.60;;;;;;;1.58;61.41;101916.69;10256478;28;20231;-65
2022/03/12 21:57:51;;;;;;;56.43;20.27;;;;;;;1.54;61.82;101912.22;10256321;28;20196;-66
2022/03/12 22:02:56;;;;;;;41.60;19.47;;;;;;;1.31;61.06;101903.41;10256036;28;20230;-65
2022/03/12 22:08:01;;;;;;;45.97;20.60;;;;;;;1.36;62.03;101898.50;10256173;28;20236;-69
2022/03/12 22:13:07;;;;;;;45.90;20.20;;;;;;;1.33;62.75;101904.31;10256131;28;20311;-66
2022/03/12 22:18:12;;;;;;;45.57;20.40;;;;;;;1.26;63.28;101909.91;10255180;28;20322;-67
2022/03/12 22:23:16;;;;;;;47.13;20.50;;;;;;;1.23;63.51;101904.66;10255668;28;20727;-69
2022/03/12 22:28:19;;;;;;;54.10;20.87;;;;;;;1.27;64.40;101904.03;10255815;28;20230;-68
2022/03/12 22:33:24;;;;;;;51.97;21.47;;;;;;;1.31;63.86;101899.94;10265099;28;20243;-66
2022/03/12 22:38:27;;;;;;;57.37;21.53;;;;;;;1.33;63.62;101890.69;10252519;28;20235;-69
2022/03/12 22:43:31;;;;;;;44.57;20.27;;;;;;;1.31;63.83;101895.72;9910226;28;9999915;-67
2022/03/12 22:48:36;;;;;;;55.73;21.33;;;;;;;1.22;63.97;101902.91;10252033;28;20230;-65
2022/03/12 22:53:39;;;;;;;49.73;21.03;;;;;;;1.21;65.11;101892.59;10252032;28;20716;-65
2022/03/12 22:58:45;;;;;;;47.80;22.50;;;;;;;1.17;63.81;101883.91;10252281;28;20327;-67
2022/03/12 23:09:10;;;;;;;50.10;22.17;;;;;;;1.07;64.51;101891.91;10251893;28;20367;-69
2022/03/12 23:14:22;;;;;;;52.87;22.60;;;;;;;0.93;64.36;101892.84;10251033;28;20559;-68